Time;durP1;ratioP1;P1;durP2;ratioP2;P2;SDS_P1;SDS_P2;PMS_P1;PMS_P2;Temp;Humidity;BMP_temperature;BMP_pressure;BME280_temperature;BME280_humidity;BME280_pressure;Samples;Min_cycle;Max_cycle;Signal;HPM_P1;HPM_P2
2023/03/07 00:00:11;;;;;;;17.40;11.07;;;7.70;99.90;;;;;;4937410;28;20035;-73
2023/03/07 00:02:38;;;;;;;16.48;11.65;;;7.70;99.90;;;;;;4935595;29;20040;-74
2023/03/07 00:05:04;;;;;;;17.98;12.00;;;7.70;99.90;;;;;;4928981;29;20036;-73
2023/03/07 00:07:30;;;;;;;18.48;11.82;;;7.60;99.90;;;;;;4930933;29;20413;-74
2023/03/07 00:09:57;;;;;;;16.70;12.32;;;7.60;99.90;;;;;;4936461;29;20050;-72
2023/03/07 00:12:23;;;;;;;18.47;11.97;;;7.60;99.90;;;;;;4930139;29;20043;-72
2023/03/07 00:14:49;;;;;;;20.05;12.45;;;7.50;99.90;;;;;;4929810;29;20389;-73
2023/03/07 00:17:15;;;;;;;19.17;12.40;;;7.50;99.90;;;;;;4935081;28;20044;-72
2023/03/07 00:19:42;;;;;;;17.15;12.15;;;7.50;99.90;;;;;;4937497;29;20055;-73
2023/03/07 00:22:09;;;;;;;17.13;12.25;;;7.70;99.90;;;;;;4937397;29;20481;-73
2023/03/07 00:24:35;;;;;;;18.30;12.45;;;7.70;99.90;;;;;;4940255;29;20044;-72
2023/03/07 00:27:02;;;;;;;18.90;11.55;;;7.80;99.90;;;;;;4937304;29;20043;-72
2023/03/07 00:29:28;;;;;;;19.65;12.55;;;7.80;99.90;;;;;;4936921;29;20028;-73
2023/03/07 00:31:54;;;;;;;18.60;12.40;;;7.90;99.90;;;;;;4935455;28;20106;-72
2023/03/07 00:34:20;;;;;;;17.02;12.68;;;7.90;99.90;;;;;;4935853;29;20032;-72
2023/03/07 00:36:46;;;;;;;20.40;12.27;;;7.90;99.90;;;;;;4937050;29;20058;-73
2023/03/07 00:39:12;;;;;;;19.42;13.85;;;7.90;99.90;;;;;;4936727;28;20039;-72
2023/03/07 00:41:38;;;;;;;18.30;12.18;;;7.80;99.90;;;;;;4936555;29;20032;-73
2023/03/07 00:44:04;;;;;;;20.73;14.35;;;7.90;99.90;;;;;;4930660;29;20032;-73
2023/03/07 00:46:30;;;;;;;19.75;14.00;;;7.90;99.90;;;;;;4936333;28;20043;-73
2023/03/07 00:48:57;;;;;;;20.42;13.48;;;7.90;99.90;;;;;;4936909;29;20032;-72
2023/03/07 00:51:23;;;;;;;17.25;13.07;;;7.80;99.90;;;;;;4936859;29;20031;-73
2023/03/07 00:53:49;;;;;;;17.48;13.32;;;7.70;99.90;;;;;;4935903;29;20031;-72
2023/03/07 00:56:25;;;;;;;18.77;12.60;;;7.80;99.90;;;;;;4936819;29;20028;-72
2023/03/07 00:58:51;;;;;;;19.67;12.83;;;7.80;99.90;;;;;;4935301;29;20493;-72
2023/03/07 01:01:19;;;;;;;19.38;12.55;;;7.70;99.90;;;;;;4918530;28;20501;-72
2023/03/07 01:03:48;;;;;;;18.83;12.30;;;7.70;99.90;;;;;;4935841;29;20044;-72
2023/03/07 01:06:16;;;;;;;17.95;12.60;;;7.70;99.90;;;;;;4936617;29;20380;-72
2023/03/07 01:08:42;;;;;;;19.75;12.60;;;7.70;99.90;;;;;;4935284;29;20044;-72
2023/03/07 01:11:08;;;;;;;18.60;12.95;;;7.70;99.90;;;;;;4936105;29;20048;-72
2023/03/07 01:13:34;;;;;;;17.90;12.37;;;7.70;99.90;;;;;;4952010;29;20428;-73
2023/03/07 01:16:07;;;;;;;21.00;12.17;;;7.70;99.90;;;;;;4933107;29;20040;-73
2023/03/07 01:18:33;;;;;;;19.03;12.67;;;7.70;99.90;;;;;;4928871;29;20055;-73
2023/03/07 01:20:59;;;;;;;21.43;12.03;;;7.70;99.90;;;;;;4936483;29;20492;-72
2023/03/07 01:23:25;;;;;;;18.80;12.10;;;7.70;99.90;;;;;;4935076;29;20046;-72
2023/03/07 01:25:51;;;;;;;18.53;12.50;;;7.70;99.90;;;;;;4937018;29;20392;-73
2023/03/07 01:28:17;;;;;;;19.73;12.10;;;7.70;99.90;;;;;;4934374;29;20058;-73
2023/03/07 01:30:43;;;;;;;17.10;12.30;;;7.70;99.90;;;;;;4935447;28;20400;-74
2023/03/07 01:33:09;;;;;;;17.77;12.50;;;7.70;99.90;;;;;;4935180;29;20492;-75
2023/03/07 01:35:37;;;;;;;17.10;11.90;;;7.60;99.90;;;;;;4935048;29;20024;-75
2023/03/07 01:38:03;;;;;;;18.55;11.70;;;7.70;99.90;;;;;;4935846;29;20047;-75
2023/03/07 01:40:29;;;;;;;19.47;12.30;;;7.60;99.90;;;;;;4935835;29;20043;-75
2023/03/07 01:43:28;;;;;;;22.20;12.45;;;7.60;99.90;;;;;;4936121;29;20036;-75
2023/03/07 01:46:15;;;;;;;16.80;11.90;;;7.60;99.90;;;;;;4930501;28;20046;-73
2023/03/07 01:49:08;;;;;;;16.23;12.25;;;7.60;99.90;;;;;;4927315;29;20043;-73
2023/03/07 01:51:35;;;;;;;16.88;11.45;;;7.50;99.90;;;;;;4932676;28;20040;-73
2023/03/07 01:54:01;;;;;;;18.50;11.67;;;7.50;99.90;;;;;;4932522;29;20032;-72
2023/03/07 01:56:27;;;;;;;18.08;12.05;;;7.50;99.90;;;;;;4934303;29;20028;-72
2023/03/07 01:58:54;;;;;;;17.85;12.48;;;7.50;99.90;;;;;;4934143;29;20043;-74
2023/03/07 02:01:20;;;;;;;17.63;11.43;;;7.40;99.90;;;;;;4934091;29;20515;-72
2023/03/07 02:03:49;;;;;;;17.67;12.00;;;7.50;99.90;;;;;;4933141;29;20035;-72
2023/03/07 02:06:15;;;;;;;16.20;12.10;;;7.50;99.90;;;;;;4935645;29;20038;-73
2023/03/07 02:08:41;;;;;;;16.33;11.70;;;7.50;99.90;;;;;;4933152;29;20370;-73
2023/03/07 02:11:07;;;;;;;14.47;10.90;;;7.50;99.90;;;;;;4916479;29;20051;-73
2023/03/07 02:13:34;;;;;;;17.30;11.40;;;7.40;99.90;;;;;;4910013;29;20046;-73
2023/03/07 02:16:00;;;;;;;18.00;11.20;;;7.50;99.90;;;;;;4929003;28;20393;-74
2023/03/07 02:18:28;;;;;;;16.17;11.17;;;7.50;99.90;;;;;;4934183;29;20071;-75
2023/03/07 02:21:16;;;;;;;16.38;10.98;;;7.50;99.90;;;;;;4918066;29;20035;-75
2023/03/07 02:24:20;;;;;;;17.67;11.35;;;7.50;99.90;;;;;;4933213;29;20477;-73
2023/03/07 02:26:46;;;;;;;18.38;12.30;;;7.50;99.90;;;;;;4954410;29;20019;-74
2023/03/07 02:29:12;;;;;;;15.07;11.07;;;7.50;99.90;;;;;;4947583;28;20043;-74
2023/03/07 02:31:38;;;;;;;23.42;12.20;;;7.50;99.90;;;;;;4932845;29;20047;-74
2023/03/07 02:34:27;;;;;;;17.83;11.55;;;7.50;99.90;;;;;;4934399;29;20058;-74
2023/03/07 02:37:06;;;;;;;17.08;10.60;;;7.50;99.90;;;;;;4934782;29;20062;-74
2023/03/07 02:39:32;;;;;;;18.30;11.63;;;7.50;99.90;;;;;;4930714;29;20051;-74
2023/03/07 02:42:01;;;;;;;17.17;11.02;;;7.40;99.90;;;;;;4925890;29;20040;-74
2023/03/07 02:44:27;;;;;;;18.40;11.13;;;7.50;99.90;;;;;;4932526;29;20040;-74
2023/03/07 02:46:54;;;;;;;18.85;11.35;;;7.50;99.90;;;;;;4934689;28;20477;-74
2023/03/07 02:49:20;;;;;;;15.30;10.70;;;7.50;99.90;;;;;;4933915;29;20032;-74
2023/03/07 02:51:46;;;;;;;13.85;10.63;;;7.40;99.90;;;;;;4935030;29;20389;-74
2023/03/07 02:54:12;;;;;;;15.00;10.43;;;7.40;99.90;;;;;;4933036;29;20051;-74
2023/03/07 02:56:38;;;;;;;17.00;10.65;;;7.30;99.90;;;;;;4934615;29;20028;-74
2023/03/07 02:59:04;;;;;;;14.18;10.07;;;7.40;99.90;;;;;;4934967;29;20039;-74
2023/03/07 03:01:30;;;;;;;18.98;11.40;;;7.30;99.90;;;;;;4934409;28;20036;-74
2023/03/07 03:03:56;;;;;;;17.83;11.32;;;7.40;99.90;;;;;;4932525;29;20478;-74
2023/03/07 03:06:23;;;;;;;31.42;17.13;;;7.40;99.90;;;;;;4938172;29;20096;-74
2023/03/07 03:08:49;;;;;;;39.27;18.33;;;7.40;99.90;;;;;;4938883;29;20055;-74
2023/03/07 03:11:15;;;;;;;62.10;25.37;;;7.30;99.90;;;;;;4938794;29;20412;-74
2023/03/07 03:13:41;;;;;;;41.47;19.52;;;7.30;99.90;;;;;;4938757;29;20051;-74
2023/03/07 03:16:07;;;;;;;51.70;22.50;;;7.30;99.90;;;;;;4937109;28;20408;-74
2023/03/07 03:18:33;;;;;;;63.37;28.63;;;7.30;99.90;;;;;;4937706;29;20055;-74
2023/03/07 03:21:01;;;;;;;43.43;19.47;;;7.30;99.90;;;;;;4938979;29;20473;-74
2023/03/07 03:23:28;;;;;;;36.05;17.77;;;7.30;99.90;;;;;;4936204;29;20485;-74
2023/03/07 03:25:58;;;;;;;38.10;17.88;;;7.30;99.90;;;;;;4936726;29;20423;-74
2023/03/07 03:28:24;;;;;;;44.95;19.88;;;7.30;99.90;;;;;;4938569;29;20047;-74
2023/03/07 03:31:01;;;;;;;25.50;15.55;;;7.20;99.90;;;;;;4937355;28;20032;-74
2023/03/07 03:33:28;;;;;;;18.53;12.03;;;7.20;99.90;;;;;;4938150;29;20046;-74
2023/03/07 03:35:55;;;;;;;30.33;15.65;;;7.10;99.90;;;;;;4937594;29;20044;-74
2023/03/07 03:38:22;;;;;;;26.03;14.73;;;7.20;99.90;;;;;;4937102;29;20061;-74
2023/03/07 03:40:48;;;;;;;22.67;13.00;;;7.30;99.90;;;;;;4936738;29;20039;-74
2023/03/07 03:43:14;;;;;;;27.52;13.80;;;7.30;99.90;;;;;;4938350;29;20051;-74
2023/03/07 03:45:40;;;;;;;20.77;13.38;;;7.30;99.90;;;;;;4936767;28;20040;-74
2023/03/07 03:48:07;;;;;;;26.30;15.93;;;7.40;99.90;;;;;;4937955;29;20043;-74
2023/03/07 03:50:33;;;;;;;26.77;13.98;;;7.40;99.90;;;;;;4936991;29;20035;-74
2023/03/07 03:53:00;;;;;;;17.92;10.95;;;7.40;99.90;;;;;;4934513;29;20031;-74
2023/03/07 03:55:26;;;;;;;17.58;10.82;;;7.40;99.90;;;;;;4936365;29;20031;-74
2023/03/07 03:57:52;;;;;;;19.27;11.97;;;7.40;99.90;;;;;;4937315;29;20055;-74
2023/03/07 04:00:18;;;;;;;23.80;13.60;;;7.40;99.90;;;;;;4937412;28;20380;-74
2023/03/07 04:02:45;;;;;;;19.13;12.27;;;7.40;99.90;;;;;;4937301;29;20036;-74
2023/03/07 04:05:11;;;;;;;22.60;14.50;;;7.40;99.90;;;;;;4937028;29;20032;-74
2023/03/07 04:07:37;;;;;;;24.20;15.17;;;7.40;99.90;;;;;;4938110;29;20048;-74
2023/03/07 04:10:04;;;;;;;20.20;11.95;;;7.40;99.90;;;;;;4936794;29;20054;-74
2023/03/07 04:12:31;;;;;;;16.58;10.65;;;7.40;99.90;;;;;;4947683;29;20055;-74
2023/03/07 04:14:57;;;;;;;20.35;11.52;;;7.40;99.90;;;;;;4947696;29;20028;-74
2023/03/07 04:17:23;;;;;;;18.20;11.20;;;7.40;99.90;;;;;;4934316;28;20126;-74
2023/03/07 04:19:49;;;;;;;20.65;12.95;;;7.40;99.90;;;;;;4937459;29;20039;-74
2023/03/07 04:22:15;;;;;;;21.10;13.43;;;7.40;99.90;;;;;;4937298;29;20036;-74
2023/03/07 04:24:41;;;;;;;19.15;11.52;;;7.40;99.90;;;;;;4938073;29;20047;-74
2023/03/07 04:27:07;;;;;;;18.73;11.57;;;7.40;99.90;;;;;;4936905;29;20028;-74
2023/03/07 04:29:33;;;;;;;15.57;10.85;;;7.40;99.90;;;;;;4937232;29;20027;-74
2023/03/07 04:31:59;;;;;;;17.73;11.52;;;7.40;99.90;;;;;;4935843;29;20042;-74
2023/03/07 04:34:25;;;;;;;23.13;14.95;;;7.40;99.90;;;;;;4936266;29;20388;-74
2023/03/07 04:36:51;;;;;;;32.27;19.13;;;7.40;99.90;;;;;;4936719;29;20039;-74
2023/03/07 04:39:17;;;;;;;22.53;14.33;;;7.40;99.90;;;;;;4936164;29;20113;-74
2023/03/07 04:41:44;;;;;;;21.70;13.73;;;7.40;99.90;;;;;;4937239;29;20028;-72
2023/03/07 04:44:10;;;;;;;15.43;10.70;;;7.30;99.90;;;;;;4936104;29;20063;-74
2023/03/07 04:46:36;;;;;;;18.45;10.55;;;7.30;99.90;;;;;;4932395;28;20032;-74
2023/03/07 04:49:02;;;;;;;19.70;12.02;;;7.20;99.90;;;;;;4936038;29;20046;-74
2023/03/07 04:51:28;;;;;;;17.38;10.48;;;7.20;99.90;;;;;;4935096;29;20597;-75
2023/03/07 04:53:54;;;;;;;14.77;9.80;;;7.10;99.90;;;;;;4934918;28;20047;-74
2023/03/07 04:56:20;;;;;;;16.27;10.87;;;7.00;99.90;;;;;;4934900;29;20044;-74
2023/03/07 04:58:46;;;;;;;19.43;11.87;;;7.00;99.90;;;;;;4936449;29;20054;-74
2023/03/07 05:01:13;;;;;;;16.33;11.50;;;6.90;99.90;;;;;;4936250;28;20032;-74
2023/03/07 05:03:39;;;;;;;18.90;12.30;;;6.90;99.90;;;;;;4935849;29;20050;-74
2023/03/07 05:06:07;;;;;;;22.70;12.97;;;6.90;99.90;;;;;;4934389;29;20044;-74
2023/03/07 05:08:33;;;;;;;16.90;12.13;;;6.90;99.90;;;;;;4935211;29;20047;-74
2023/03/07 05:10:59;;;;;;;22.30;15.50;;;6.90;99.90;;;;;;4936505;29;20051;-74
2023/03/07 05:13:25;;;;;;;19.40;11.83;;;6.80;99.90;;;;;;4935462;29;20036;-74
2023/03/07 05:15:56;;;;;;;18.33;13.40;;;6.80;99.90;;;;;;4932703;29;20538;-74
2023/03/07 05:18:22;;;;;;;18.75;12.43;;;6.80;99.90;;;;;;4935386;29;20067;-74
2023/03/07 05:20:48;;;;;;;15.43;10.73;;;6.80;99.90;;;;;;4933039;29;20028;-74
2023/03/07 05:23:15;;;;;;;14.83;10.47;;;6.80;99.90;;;;;;4935828;29;20120;-74
2023/03/07 05:25:41;;;;;;;14.20;10.30;;;6.70;99.90;;;;;;4935544;29;20028;-74
2023/03/07 05:28:07;;;;;;;17.40;11.40;;;6.70;99.90;;;;;;4934594;29;20511;-74
2023/03/07 05:30:33;;;;;;;13.13;10.03;;;6.70;99.90;;;;;;4935563;28;20036;-74
2023/03/07 05:32:59;;;;;;;19.27;10.30;;;6.70;99.90;;;;;;4934920;29;20349;-74
2023/03/07 05:35:25;;;;;;;15.07;10.17;;;6.80;99.90;;;;;;4933658;29;20040;-74
2023/03/07 05:37:52;;;;;;;15.50;10.00;;;6.70;99.90;;;;;;4934882;29;20408;-74
2023/03/07 05:40:18;;;;;;;13.60;9.57;;;6.70;99.90;;;;;;4924626;29;20036;-74
2023/03/07 05:42:44;;;;;;;15.47;10.37;;;6.70;99.90;;;;;;4933764;29;20039;-74
2023/03/07 05:45:11;;;;;;;14.57;10.10;;;6.70;99.90;;;;;;4928201;28;20036;-75
2023/03/07 05:47:40;;;;;;;14.53;9.70;;;6.70;99.90;;;;;;4917148;29;20044;-73
2023/03/07 05:50:08;;;;;;;12.80;9.17;;;6.70;99.90;;;;;;4916426;29;20039;-73
2023/03/07 05:52:34;;;;;;;13.80;9.77;;;6.70;99.90;;;;;;4916840;29;20051;-73
2023/03/07 05:55:00;;;;;;;13.53;9.50;;;6.70;99.90;;;;;;4923335;29;20031;-74
2023/03/07 05:57:26;;;;;;;13.67;9.83;;;6.80;99.90;;;;;;4935714;29;20051;-74
2023/03/07 05:59:52;;;;;;;12.70;9.47;;;6.70;99.90;;;;;;4935440;29;20044;-73
2023/03/07 06:02:18;;;;;;;12.97;9.33;;;6.70;99.90;;;;;;4935525;28;20396;-73
2023/03/07 06:04:45;;;;;;;12.93;8.88;;;6.80;99.90;;;;;;4933644;29;20039;-74
2023/03/07 06:07:11;;;;;;;14.70;9.70;;;6.80;99.90;;;;;;4935251;29;20035;-73
2023/03/07 06:09:38;;;;;;;13.43;10.32;;;6.70;99.90;;;;;;4934135;29;20047;-73
2023/03/07 06:12:04;;;;;;;14.20;10.70;;;6.70;99.90;;;;;;4939645;29;20066;-74
2023/03/07 06:14:32;;;;;;;13.33;10.47;;;6.70;99.90;;;;;;4933862;29;20465;-74
2023/03/07 06:17:00;;;;;;;13.47;9.40;;;6.80;99.90;;;;;;4934936;28;20036;-74
2023/03/07 06:19:26;;;;;;;14.63;9.70;;;6.80;99.90;;;;;;4934904;29;20044;-73
2023/03/07 06:21:52;;;;;;;12.53;9.33;;;6.80;99.90;;;;;;4935288;29;20043;-74
2023/03/07 06:24:18;;;;;;;13.30;9.77;;;6.90;99.90;;;;;;4937893;29;20031;-74
2023/03/07 06:26:44;;;;;;;15.83;9.00;;;6.90;99.90;;;;;;4934118;29;20047;-74
2023/03/07 06:29:10;;;;;;;12.70;9.80;;;6.90;99.90;;;;;;4933910;29;20039;-73
2023/03/07 06:31:37;;;;;;;11.50;8.97;;;6.90;99.90;;;;;;4934036;28;20036;-73
2023/03/07 06:34:03;;;;;;;14.40;9.77;;;6.90;99.90;;;;;;4934807;29;20040;-73
2023/03/07 06:36:29;;;;;;;13.50;10.07;;;6.90;99.90;;;;;;4933005;29;20050;-74
2023/03/07 06:38:55;;;;;;;12.53;9.23;;;7.00;99.90;;;;;;4933996;29;20056;-74
2023/03/07 06:41:21;;;;;;;17.13;10.27;;;7.00;99.90;;;;;;4935001;29;20035;-73
2023/03/07 06:43:53;;;;;;;14.30;9.93;;;7.00;99.90;;;;;;4935098;29;20039;-74
2023/03/07 06:46:19;;;;;;;13.83;9.90;;;6.90;99.90;;;;;;4932292;28;20047;-74
2023/03/07 06:48:45;;;;;;;15.80;8.87;;;6.90;99.90;;;;;;4934512;29;20048;-73
2023/03/07 06:51:12;;;;;;;13.53;10.87;;;6.80;99.90;;;;;;4935122;29;20473;-73
2023/03/07 06:53:38;;;;;;;13.87;9.83;;;6.80;99.90;;;;;;4934999;29;20042;-74
2023/03/07 06:56:04;;;;;;;14.40;9.50;;;6.80;99.90;;;;;;4932961;29;20050;-73
2023/03/07 06:58:30;;;;;;;14.47;10.10;;;6.80;99.90;;;;;;4934527;29;20056;-74
2023/03/07 07:00:56;;;;;;;13.18;9.77;;;6.80;99.90;;;;;;4934518;28;20043;-74
2023/03/07 07:03:22;;;;;;;16.03;9.73;;;6.80;99.90;;;;;;4934097;29;20036;-74
2023/03/07 07:05:48;;;;;;;16.27;10.10;;;6.90;99.90;;;;;;4932278;29;20161;-73
2023/03/07 07:08:15;;;;;;;12.70;9.43;;;6.80;99.90;;;;;;4934435;29;20039;-74
2023/03/07 07:10:41;;;;;;;15.53;10.17;;;6.70;99.90;;;;;;4934847;29;20401;-73
2023/03/07 07:13:07;;;;;;;13.03;9.57;;;6.80;99.90;;;;;;4950523;29;20452;-73
2023/03/07 07:15:33;;;;;;;12.03;9.80;;;6.90;99.90;;;;;;4939801;28;20396;-74
2023/03/07 07:17:59;;;;;;;14.63;10.00;;;6.90;99.90;;;;;;4933775;29;20389;-74
2023/03/07 07:20:25;;;;;;;15.43;10.83;;;7.00;99.90;;;;;;4934343;29;20044;-73
2023/03/07 07:22:51;;;;;;;17.47;10.27;;;7.00;99.90;;;;;;4934124;29;20032;-74
2023/03/07 07:25:17;;;;;;;16.63;10.80;;;7.00;99.90;;;;;;4935912;29;20535;-74
2023/03/07 07:27:43;;;;;;;16.13;10.23;;;7.00;99.90;;;;;;4933185;29;20039;-73
2023/03/07 07:30:10;;;;;;;14.37;10.67;;;7.00;99.90;;;;;;4931993;28;20035;-73
2023/03/07 07:32:36;;;;;;;14.90;10.83;;;7.00;99.90;;;;;;4933174;29;20055;-74
2023/03/07 07:35:02;;;;;;;16.00;11.10;;;7.00;99.90;;;;;;4933614;29;20036;-74
2023/03/07 07:37:28;;;;;;;17.63;11.77;;;7.00;99.90;;;;;;4931112;29;20050;-74
2023/03/07 07:39:55;;;;;;;17.67;10.63;;;7.00;99.90;;;;;;4931854;29;20431;-74
2023/03/07 07:42:21;;;;;;;14.63;11.40;;;7.00;99.90;;;;;;4929155;29;20028;-74
2023/03/07 07:44:47;;;;;;;17.20;11.73;;;6.90;99.90;;;;;;4929657;29;20384;-74
2023/03/07 07:47:13;;;;;;;17.33;11.40;;;6.90;99.90;;;;;;4930196;28;20540;-73
2023/03/07 07:49:39;;;;;;;17.70;12.03;;;6.90;99.90;;;;;;4933488;29;20032;-74
2023/03/07 07:52:05;;;;;;;16.67;10.27;;;6.90;99.90;;;;;;4932540;29;20481;-74
2023/03/07 07:54:31;;;;;;;17.07;11.17;;;6.90;99.90;;;;;;4943915;29;20051;-74
2023/03/07 07:56:57;;;;;;;18.20;11.73;;;6.90;99.90;;;;;;4937548;29;20463;-74
2023/03/07 07:59:23;;;;;;;15.38;11.52;;;6.90;99.90;;;;;;4929087;29;20050;-74
2023/03/07 08:01:49;;;;;;;18.38;11.85;;;6.90;99.90;;;;;;4935815;28;20062;-74
2023/03/07 08:04:16;;;;;;;15.82;11.25;;;6.90;99.90;;;;;;4937703;29;20035;-74
2023/03/07 08:06:43;;;;;;;18.80;12.37;;;7.00;99.90;;;;;;4937573;29;20038;-74
2023/03/07 08:09:09;;;;;;;17.73;11.47;;;7.00;99.90;;;;;;4934594;29;20405;-73
2023/03/07 08:11:35;;;;;;;18.43;11.87;;;7.00;99.90;;;;;;4940124;29;20058;-74
2023/03/07 08:14:02;;;;;;;19.87;11.10;;;7.10;99.90;;;;;;4954610;28;20043;-74
2023/03/07 08:16:28;;;;;;;16.17;11.73;;;7.00;99.90;;;;;;4935802;28;20032;-74
2023/03/07 08:18:55;;;;;;;16.53;12.00;;;7.00;99.90;;;;;;4936786;29;20492;-74
2023/03/07 08:21:22;;;;;;;17.33;12.57;;;7.00;99.90;;;;;;4937071;29;20059;-74
2023/03/07 08:23:48;;;;;;;17.42;11.25;;;7.00;99.90;;;;;;4921063;29;20469;-73
2023/03/07 08:26:16;;;;;;;15.97;11.17;;;7.10;99.90;;;;;;4951348;29;20390;-74
2023/03/07 08:28:42;;;;;;;16.13;11.02;;;7.10;99.90;;;;;;4937204;29;20051;-74
2023/03/07 08:31:19;;;;;;;18.88;11.35;;;7.20;99.90;;;;;;4933329;28;20571;-73
2023/03/07 08:33:46;;;;;;;19.67;11.38;;;7.20;99.90;;;;;;4932225;29;20031;-73
2023/03/07 08:36:12;;;;;;;16.65;10.57;;;7.30;99.90;;;;;;4933594;29;20044;-74
2023/03/07 08:38:38;;;;;;;15.02;10.63;;;7.40;99.90;;;;;;4935912;29;20062;-74
2023/03/07 08:41:05;;;;;;;16.73;11.50;;;7.50;99.90;;;;;;4935595;29;20024;-73
2023/03/07 08:43:32;;;;;;;20.75;11.55;;;7.50;99.90;;;;;;4935635;29;20031;-74
2023/03/07 08:45:58;;;;;;;14.48;10.68;;;7.50;99.90;;;;;;4935504;28;20040;-73
2023/03/07 08:48:25;;;;;;;15.00;11.27;;;7.60;99.90;;;;;;4935429;29;20062;-73
2023/03/07 08:50:51;;;;;;;15.65;11.18;;;7.50;99.90;;;;;;4934038;29;20043;-74
2023/03/07 08:53:18;;;;;;;17.70;11.70;;;7.60;99.90;;;;;;4936125;29;20051;-73
2023/03/07 08:55:44;;;;;;;13.43;11.25;;;7.50;99.90;;;;;;4936322;29;20044;-73
2023/03/07 08:58:10;;;;;;;17.45;11.93;;;7.50;99.90;;;;;;4936177;29;20482;-73
2023/03/07 09:00:37;;;;;;;18.70;12.68;;;7.50;99.90;;;;;;4928389;28;20035;-73
2023/03/07 09:03:03;;;;;;;14.73;11.02;;;7.50;99.90;;;;;;4935384;29;20040;-74
2023/03/07 09:05:29;;;;;;;15.80;11.65;;;7.50;99.90;;;;;;4935794;29;20039;-73
2023/03/07 09:07:55;;;;;;;18.48;13.50;;;7.60;99.90;;;;;;4936246;29;20032;-74
2023/03/07 09:10:22;;;;;;;25.05;15.00;;;7.50;99.90;;;;;;4935700;29;20054;-73
2023/03/07 09:12:50;;;;;;;17.77;12.02;;;7.60;99.90;;;;;;4948804;29;20051;-73
2023/03/07 09:15:16;;;;;;;26.10;16.13;;;7.60;99.90;;;;;;4941758;28;20043;-73
2023/03/07 09:17:42;;;;;;;23.08;13.80;;;7.70;99.90;;;;;;4932309;29;20036;-73
2023/03/07 09:20:10;;;;;;;20.05;14.35;;;7.70;99.90;;;;;;4936098;29;20058;-73
2023/03/07 09:22:37;;;;;;;24.55;14.93;;;7.70;99.90;;;;;;4929260;29;20388;-70
2023/03/07 09:25:03;;;;;;;18.00;12.55;;;7.70;99.90;;;;;;4940722;29;20491;-73
2023/03/07 09:27:29;;;;;;;15.57;12.32;;;7.70;99.90;;;;;;4932801;29;20469;-74
2023/03/07 09:29:55;;;;;;;24.05;15.02;;;7.80;99.90;;;;;;4932591;29;20034;-73
2023/03/07 09:32:21;;;;;;;19.40;12.65;;;7.80;99.90;;;;;;4934428;28;20036;-73
2023/03/07 09:34:47;;;;;;;20.95;14.80;;;7.80;99.90;;;;;;4936129;29;20038;-73
2023/03/07 09:37:13;;;;;;;29.63;18.80;;;7.80;99.90;;;;;;4938470;29;20050;-73
2023/03/07 09:39:40;;;;;;;19.42;12.00;;;7.90;99.90;;;;;;4932590;29;20039;-73
2023/03/07 09:42:24;;;;;;;22.85;15.43;;;7.90;99.90;;;;;;4935941;29;20377;-73
2023/03/07 09:45:14;;;;;;;15.75;12.20;;;7.90;99.90;;;;;;4931667;29;20480;-73
2023/03/07 09:47:59;;;;;;;14.25;11.43;;;8.00;99.90;;;;;;4931482;29;20048;-73
2023/03/07 09:50:37;;;;;;;13.15;10.48;;;8.10;99.90;;;;;;4933821;29;20028;-72
2023/03/07 09:53:04;;;;;;;16.30;11.07;;;8.10;99.90;;;;;;4937107;29;20035;-74
2023/03/07 09:55:30;;;;;;;22.02;15.70;;;8.20;99.90;;;;;;4915146;29;20032;-74
2023/03/07 09:58:08;;;;;;;15.30;11.38;;;8.40;99.90;;;;;;4915012;29;20035;-73
2023/03/07 10:00:44;;;;;;;16.05;12.18;;;8.50;99.90;;;;;;4932869;28;20043;-73
2023/03/07 10:03:19;;;;;;;23.35;15.48;;;8.70;99.90;;;;;;4933598;29;20027;-73
2023/03/07 10:05:52;;;;;;;19.33;11.82;;;8.80;99.90;;;;;;4933169;29;20497;-72
2023/03/07 10:08:28;;;;;;;13.93;11.93;;;8.90;99.90;;;;;;4934012;29;20036;-74
2023/03/07 10:11:03;;;;;;;15.50;11.85;;;9.00;99.90;;;;;;4934126;29;20043;-73
2023/03/07 10:13:47;;;;;;;20.30;12.57;;;9.10;99.90;;;;;;4940292;29;20043;-74
2023/03/07 10:16:32;;;;;;;13.32;11.13;;;9.10;99.90;;;;;;4932772;29;20050;-74
2023/03/07 10:19:29;;;;;;;16.98;11.80;;;9.20;99.90;;;;;;4934497;29;20501;-73
2023/03/07 10:22:06;;;;;;;16.48;11.82;;;9.20;99.90;;;;;;4934543;29;20027;-73
2023/03/07 10:24:48;;;;;;;19.58;11.50;;;9.20;99.90;;;;;;4941377;29;20042;-74
2023/03/07 10:27:14;;;;;;;14.70;11.60;;;9.30;99.90;;;;;;4933204;29;20032;-74
2023/03/07 10:29:51;;;;;;;15.02;11.15;;;9.30;99.90;;;;;;4917716;29;20040;-73
2023/03/07 10:32:39;;;;;;;16.80;11.43;;;9.40;99.90;;;;;;4934206;28;20052;-73
2023/03/07 10:35:14;;;;;;;15.77;11.90;;;9.40;99.90;;;;;;4934113;29;20055;-73
2023/03/07 10:37:49;;;;;;;15.48;11.15;;;9.30;99.90;;;;;;4920693;29;20036;-74
2023/03/07 10:40:24;;;;;;;14.18;11.30;;;9.30;99.90;;;;;;4934984;29;20063;-73
2023/03/07 10:42:51;;;;;;;16.95;11.98;;;9.30;99.90;;;;;;4932664;29;20485;-74
2023/03/07 10:45:17;;;;;;;14.73;11.82;;;9.40;99.90;;;;;;4948681;28;20023;-73
2023/03/07 10:47:43;;;;;;;14.48;11.80;;;9.40;99.90;;;;;;4935893;29;20051;-74
2023/03/07 10:50:30;;;;;;;13.60;11.45;;;9.40;99.90;;;;;;4936766;29;20028;-75
2023/03/07 10:52:57;;;;;;;14.25;11.60;;;9.50;99.90;;;;;;4927308;29;20035;-74
2023/03/07 10:55:33;;;;;;;14.05;11.13;;;9.50;99.90;;;;;;4932040;29;20032;-74
2023/03/07 10:58:20;;;;;;;14.73;12.48;;;9.50;99.90;;;;;;4928571;29;20039;-74
2023/03/07 11:01:07;;;;;;;15.93;11.45;;;9.50;99.90;;;;;;4934092;28;20044;-73
2023/03/07 11:04:18;;;;;;;15.13;11.65;;;9.50;99.90;;;;;;4928916;29;20040;-74
2023/03/07 11:06:51;;;;;;;16.35;11.13;;;9.50;99.90;;;;;;4932608;29;20400;-73
2023/03/07 11:09:31;;;;;;;16.92;11.23;;;9.50;99.90;;;;;;4931751;29;20051;-74
2023/03/07 11:11:58;;;;;;;18.63;11.85;;;9.50;99.90;;;;;;4939591;29;20039;-73
2023/03/07 11:14:26;;;;;;;12.90;10.95;;;9.50;99.90;;;;;;4932873;29;20035;-72
2023/03/07 11:16:54;;;;;;;14.57;10.95;;;9.60;99.90;;;;;;4934664;28;20036;-73
2023/03/07 11:19:33;;;;;;;12.98;11.00;;;9.60;99.90;;;;;;4933694;29;20050;-73
2023/03/07 11:22:02;;;;;;;15.05;10.95;;;9.60;99.90;;;;;;4934870;28;20047;-73
2023/03/07 11:24:36;;;;;;;13.45;10.00;;;9.50;99.90;;;;;;4940907;28;20050;-73
2023/03/07 11:27:02;;;;;;;12.38;9.35;;;9.50;99.90;;;;;;4939833;28;20034;-74
2023/03/07 11:29:28;;;;;;;11.98;9.32;;;9.50;99.90;;;;;;4935079;29;20035;-74
2023/03/07 11:31:54;;;;;;;11.85;10.18;;;9.60;99.90;;;;;;4936502;28;20027;-74
2023/03/07 11:34:46;;;;;;;12.77;9.95;;;9.60;99.90;;;;;;4934929;29;20024;-73
2023/03/07 11:37:21;;;;;;;12.48;10.05;;;9.50;99.90;;;;;;4930664;29;20040;-73
2023/03/07 11:40:23;;;;;;;14.77;9.65;;;9.50;99.90;;;;;;4937356;29;20401;-73
2023/03/07 11:43:13;;;;;;;12.98;10.48;;;9.60;99.90;;;;;;4935902;29;20028;-74
2023/03/07 11:46:02;;;;;;;13.85;10.15;;;9.70;99.90;;;;;;4935914;28;20043;-73
2023/03/07 11:48:41;;;;;;;13.55;10.30;;;9.80;99.90;;;;;;4907043;29;20016;-73
2023/03/07 11:51:36;;;;;;;11.35;9.10;;;9.90;99.90;;;;;;4929300;29;20504;-73
2023/03/07 11:54:06;;;;;;;11.27;10.13;;;10.00;99.90;;;;;;4933075;29;20028;-74
2023/03/07 11:56:35;;;;;;;15.35;10.05;;;10.10;99.90;;;;;;4916159;29;20051;-73
2023/03/07 11:59:13;;;;;;;12.38;10.48;;;10.10;99.90;;;;;;4915997;29;20039;-73
2023/03/07 12:02:01;;;;;;;13.20;9.90;;;10.20;99.90;;;;;;4933355;29;20047;-73
2023/03/07 12:04:36;;;;;;;11.60;10.35;;;10.10;99.90;;;;;;4917207;29;20043;-73
2023/03/07 12:07:20;;;;;;;12.18;9.57;;;10.20;99.90;;;;;;4926367;29;20047;-73
2023/03/07 12:09:51;;;;;;;11.50;9.95;;;10.30;99.90;;;;;;4935518;29;20386;-73
2023/03/07 12:12:23;;;;;;;12.85;9.88;;;10.30;99.90;;;;;;4941679;29;20031;-73
2023/03/07 12:14:49;;;;;;;11.80;10.55;;;10.40;99.90;;;;;;4918146;29;20047;-73
2023/03/07 12:17:45;;;;;;;15.27;11.23;;;10.50;99.90;;;;;;4926883;28;20039;-73
2023/03/07 12:20:36;;;;;;;12.57;10.40;;;10.60;99.90;;;;;;4934578;29;20378;-73
2023/03/07 12:23:05;;;;;;;;;;;10.90;99.90;;;;;;4935927;29;20047;-73
2023/03/07 12:25:35;;;;;;;15.68;11.13;;;11.00;99.90;;;;;;4951311;29;19906;-73
2023/03/07 12:28:16;;;;;;;14.60;11.05;;;11.20;99.90;;;;;;4941690;29;20052;-73
2023/03/07 12:30:54;;;;;;;13.18;11.25;;;11.40;99.90;;;;;;4935274;28;20409;-73
2023/03/07 12:33:22;;;;;;;13.38;11.27;;;11.50;99.90;;;;;;4935605;29;20031;-73
2023/03/07 12:35:50;;;;;;;12.40;11.10;;;11.60;99.90;;;;;;4936178;29;20028;-72
2023/03/07 12:38:25;;;;;;;12.32;11.02;;;11.70;99.90;;;;;;4919069;29;20031;-73
2023/03/07 12:41:00;;;;;;;14.23;10.68;;;11.90;99.90;;;;;;4935639;29;20055;-73
2023/03/07 12:43:36;;;;;;;11.48;10.35;;;12.00;99.90;;;;;;4933936;29;20042;-73
2023/03/07 12:46:27;;;;;;;13.70;10.50;;;12.10;99.90;;;;;;4920209;29;20038;-73
2023/03/07 12:48:57;;;;;;;12.18;10.73;;;12.10;99.90;;;;;;4934966;29;20038;-73